Time;durP1;ratioP1;P1;durP2;ratioP2;P2;SDS_P1;SDS_P2;PMS_P1;PMS_P2;Temp;Humidity;BMP_temperature;BMP_pressure;BME280_temperature;BME280_humidity;BME280_pressure;Samples;Min_cycle;Max_cycle;Signal;HPM_P1;HPM_P2
2023/09/22 00:02:19;;;;;;;10.60;3.78;;;;;;;;;;5055369;28;20124;-74
2023/09/22 00:04:44;;;;;;;11.63;3.47;;;;;;;;;;5056693;28;20075;-74
2023/09/22 00:07:09;;;;;;;5.82;3.53;;;;;;;;;;5056596;28;20265;-75
2023/09/22 00:09:35;;;;;;;7.33;3.10;;;;;;;;;;5056543;28;20017;-74
2023/09/22 00:12:01;;;;;;;4.32;3.40;;;;;;;;;;5055097;28;20748;-75
2023/09/22 00:14:26;;;;;;;5.60;3.60;;;;;;;;;;5056563;28;20426;-74
2023/09/22 00:16:52;;;;;;;5.40;3.53;;;;;;;;;;5056477;28;20108;-74
2023/09/22 00:19:17;;;;;;;8.90;3.40;;;;;;;;;;5056351;28;20025;-75
2023/09/22 00:21:42;;;;;;;6.50;3.13;;;;;;;;;;5056280;28;20025;-74
2023/09/22 00:24:08;;;;;;;8.48;3.42;;;;;;;;;;5056422;28;20343;-73
2023/09/22 00:26:33;;;;;;;6.72;3.40;;;;;;;;;;5056773;28;20036;-75
2023/09/22 00:28:59;;;;;;;11.27;3.20;;;;;;;;;;5056245;28;20052;-75
2023/09/22 00:31:25;;;;;;;8.00;3.38;;;;;;;;;;5055097;28;20025;-75
2023/09/22 00:33:51;;;;;;;5.18;3.20;;;;;;;;;;5056157;28;20021;-75
2023/09/22 00:36:17;;;;;;;8.25;3.40;;;;;;;;;;5056443;28;20025;-75
2023/09/22 00:38:42;;;;;;;6.18;3.33;;;;;;;;;;5054957;28;20116;-75
2023/09/22 00:41:07;;;;;;;8.57;3.45;;;;;;;;;;5055884;28;20048;-75
2023/09/22 00:43:33;;;;;;;5.10;3.28;;;;;;;;;;5056046;28;20456;-75
2023/09/22 00:45:58;;;;;;;6.35;3.38;;;;;;;;;;5055962;28;20028;-75
2023/09/22 00:48:28;;;;;;;6.07;3.33;;;;;;;;;;5056109;28;20033;-75
2023/09/22 00:50:55;;;;;;;6.63;3.60;;;;;;;;;;5054559;28;20013;-75
2023/09/22 00:53:23;;;;;;;8.10;3.50;;;;;;;;;;5056184;28;20074;-75
2023/09/22 00:55:51;;;;;;;6.85;3.50;;;;;;;;;;5055869;28;20063;-75
2023/09/22 00:58:17;;;;;;;7.18;3.40;;;;;;;;;;5055526;28;20025;-74
2023/09/22 01:00:47;;;;;;;4.60;2.90;;;;;;;;;;5055107;28;20027;-76
2023/09/22 01:03:13;;;;;;;10.57;3.45;;;;;;;;;;5054153;28;20040;-76
2023/09/22 01:05:38;;;;;;;9.13;3.22;;;;;;;;;;5054130;28;20017;-77
2023/09/22 01:08:03;;;;;;;6.18;3.05;;;;;;;;;;5055697;28;20039;-75
2023/09/22 01:10:40;;;;;;;6.30;3.33;;;;;;;;;;5054764;28;20174;-75
2023/09/22 01:13:06;;;;;;;9.40;3.40;;;;;;;;;;5054382;28;20036;-76
2023/09/22 01:15:36;;;;;;;7.95;3.55;;;;;;;;;;5055626;28;20035;-76
2023/09/22 01:18:04;;;;;;;5.32;3.17;;;;;;;;;;5055337;28;20033;-75
2023/09/22 01:20:29;;;;;;;5.70;3.50;;;;;;;;;;5055197;28;20017;-75
2023/09/22 01:22:54;;;;;;;8.60;3.35;;;;;;;;;;5053972;28;20028;-75
2023/09/22 01:25:19;;;;;;;7.78;3.45;;;;;;;;;;5055104;28;20025;-75
2023/09/22 01:27:45;;;;;;;9.98;3.33;;;;;;;;;;5053849;28;20029;-75
2023/09/22 01:30:10;;;;;;;4.63;3.13;;;;;;;;;;5055001;28;20040;-75
2023/09/22 01:32:39;;;;;;;7.72;3.28;;;;;;;;;;5053691;28;20270;-75
2023/09/22 01:35:07;;;;;;;5.80;3.50;;;;;;;;;;5054966;28;20496;-75
2023/09/22 01:37:35;;;;;;;14.35;3.38;;;;;;;;;;5055196;28;20025;-75
2023/09/22 01:40:01;;;;;;;5.25;3.00;;;;;;;;;;5054643;28;20075;-75
2023/09/22 01:42:26;;;;;;;6.07;3.30;;;;;;;;;;5053960;28;20507;-75
2023/09/22 01:44:51;;;;;;;8.25;3.42;;;;;;;;;;5054782;28;20082;-75
2023/09/22 01:47:17;;;;;;;6.50;3.17;;;;;;;;;;5054732;28;20438;-75
2023/09/22 01:49:42;;;;;;;6.03;3.20;;;;;;;;;;5053361;28;20254;-75
2023/09/22 01:52:08;;;;;;;5.18;3.58;;;;;;;;;;5053391;28;20040;-76
2023/09/22 01:54:33;;;;;;;6.05;2.88;;;;;;;;;;5055005;28;20025;-75
2023/09/22 01:56:58;;;;;;;6.30;3.20;;;;;;;;;;5054706;28;20029;-75
2023/09/22 01:59:23;;;;;;;5.63;3.30;;;;;;;;;;5054441;28;20791;-75
2023/09/22 02:01:48;;;;;;;8.07;3.33;;;;;;;;;;5054475;28;20669;-75
2023/09/22 02:04:14;;;;;;;7.60;3.30;;;;;;;;;;5054536;28;20269;-75
2023/09/22 02:06:39;;;;;;;5.97;3.77;;;;;;;;;;5054725;28;20281;-75
2023/09/22 02:09:05;;;;;;;6.35;2.83;;;;;;;;;;5053052;28;20262;-75
2023/09/22 02:11:31;;;;;;;5.50;2.92;;;;;;;;;;5054215;28;20023;-75
2023/09/22 02:13:56;;;;;;;6.45;3.33;;;;;;;;;;5052953;28;20028;-75
2023/09/22 02:16:22;;;;;;;8.60;3.38;;;;;;;;;;5054187;28;20074;-75
2023/09/22 02:18:47;;;;;;;5.65;3.50;;;;;;;;;;5054392;28;20021;-75
2023/09/22 02:21:13;;;;;;;6.63;3.27;;;;;;;;;;5054001;28;20399;-75
2023/09/22 02:23:38;;;;;;;5.47;3.35;;;;;;;;;;5053266;28;20270;-74
2023/09/22 02:26:07;;;;;;;11.10;3.33;;;;;;;;;;5054826;28;20029;-74
2023/09/22 02:28:32;;;;;;;8.15;3.50;;;;;;;;;;5053960;28;20258;-75
2023/09/22 02:30:58;;;;;;;5.25;3.08;;;;;;;;;;5053887;28;20031;-75
2023/09/22 02:33:23;;;;;;;8.05;3.40;;;;;;;;;;5053945;28;20544;-75
2023/09/22 02:35:48;;;;;;;4.88;3.20;;;;;;;;;;5052577;28;20036;-74
2023/09/22 02:38:13;;;;;;;6.47;3.37;;;;;;;;;;5053923;28;20053;-75
2023/09/22 02:40:39;;;;;;;7.85;3.08;;;;;;;;;;5052250;28;20274;-75
2023/09/22 02:43:06;;;;;;;9.13;3.05;;;;;;;;;;5053731;28;20052;-75
2023/09/22 02:45:31;;;;;;;8.13;3.72;;;;;;;;;;5053658;28;20032;-76
2023/09/22 02:47:57;;;;;;;9.25;2.88;;;;;;;;;;5053626;28;20016;-75
2023/09/22 02:50:22;;;;;;;9.57;3.80;;;;;;;;;;5053536;28;20096;-75
2023/09/22 02:52:47;;;;;;;11.68;3.15;;;;;;;;;;5052226;28;20024;-75
2023/09/22 02:55:13;;;;;;;11.27;2.92;;;;;;;;;;5053483;28;20048;-75
2023/09/22 02:57:40;;;;;;;4.43;2.97;;;;;;;;;;5053433;28;20027;-75
2023/09/22 03:00:14;;;;;;;3.75;2.40;;;;;;;;;;5053504;28;20028;-75
2023/09/22 03:02:40;;;;;;;5.28;2.35;;;;;;;;;;5052099;28;20039;-75
2023/09/22 03:05:09;;;;;;;5.60;2.55;;;;;;;;;;5052065;28;20025;-75
2023/09/22 03:07:35;;;;;;;4.43;2.50;;;;;;;;;;5053615;28;20158;-76
2023/09/22 03:10:00;;;;;;;4.40;2.35;;;;;;;;;;5051935;28;20480;-75
2023/09/22 03:12:26;;;;;;;5.90;2.20;;;;;;;;;;5053166;28;20145;-75
2023/09/22 03:14:52;;;;;;;4.43;2.20;;;;;;;;;;5053151;28;20085;-75
2023/09/22 03:17:18;;;;;;;3.03;1.67;;;;;;;;;;5053137;28;20044;-75
2023/09/22 03:19:43;;;;;;;2.97;1.38;;;;;;;;;;5053003;28;20052;-75
2023/09/22 03:22:08;;;;;;;1.50;1.10;;;;;;;;;;5053023;28;20110;-75
2023/09/22 03:24:34;;;;;;;2.55;1.23;;;;;;;;;;5053287;28;20032;-75
2023/09/22 03:26:59;;;;;;;2.08;1.15;;;;;;;;;;5052959;28;20476;-75
2023/09/22 03:29:24;;;;;;;2.03;1.30;;;;;;;;;;5052898;28;20510;-75
2023/09/22 03:31:50;;;;;;;2.13;1.23;;;;;;;;;;5053269;28;20257;-75
2023/09/22 03:34:15;;;;;;;2.03;1.00;;;;;;;;;;5051685;28;20261;-75
2023/09/22 03:36:41;;;;;;;1.30;1.00;;;;;;;;;;5052919;28;20426;-75
2023/09/22 03:39:12;;;;;;;1.90;0.90;;;;;;;;;;5052725;28;20183;-76
2023/09/22 03:41:42;;;;;;;0.75;0.63;;;;;;;;;;5051485;28;20025;-75
2023/09/22 03:44:07;;;;;;;2.72;0.50;;;;;;;;;;5053062;28;20079;-75
2023/09/22 03:46:32;;;;;;;0.50;0.50;;;;;;;;;;5052874;28;20403;-75
2023/09/22 03:48:57;;;;;;;0.40;0.40;;;;;;;;;;5052841;28;20017;-75
2023/09/22 03:51:23;;;;;;;0.53;0.40;;;;;;;;;;5052703;28;20107;-75
2023/09/22 03:53:48;;;;;;;1.83;0.40;;;;;;;;;;5052755;28;20296;-75
2023/09/22 03:56:13;;;;;;;2.30;0.25;;;;;;;;;;5051542;28;20203;-75
2023/09/22 03:58:40;;;;;;;0.35;0.35;;;;;;;;;;5052790;28;20113;-75
2023/09/22 04:01:06;;;;;;;0.13;0.13;;;;;;;;;;5051293;28;20021;-75
2023/09/22 04:03:31;;;;;;;0.20;0.17;;;;;;;;;;5052662;28;20056;-76
2023/09/22 04:05:56;;;;;;;0.40;0.20;;;;;;;;;;5051407;28;20028;-75
2023/09/22 04:08:22;;;;;;;0.60;0.50;;;;;;;;;;5052632;28;20021;-75
2023/09/22 04:10:47;;;;;;;0.40;0.40;;;;;;;;;;5052355;28;20278;-74
2023/09/22 04:13:14;;;;;;;0.20;0.20;;;;;;;;;;5052623;28;20032;-76
2023/09/22 04:15:40;;;;;;;0.60;0.40;;;;;;;;;;5052567;28;20498;-75
2023/09/22 04:18:07;;;;;;;0.30;0.30;;;;;;;;;;5052770;28;20025;-75
2023/09/22 04:20:35;;;;;;;0.47;0.40;;;;;;;;;;5051095;28;20017;-76
2023/09/22 04:23:04;;;;;;;0.40;0.35;;;;;;;;;;5052795;28;20394;-75
2023/09/22 04:25:31;;;;;;;0.52;0.40;;;;;;;;;;5051194;28;20053;-76
2023/09/22 04:28:04;;;;;;;0.30;0.30;;;;;;;;;;5052489;28;20434;-76
2023/09/22 04:30:30;;;;;;;1.13;0.40;;;;;;;;;;5052412;28;20017;-75
2023/09/22 04:32:56;;;;;;;0.28;0.28;;;;;;;;;;5052627;28;20037;-73
2023/09/22 04:35:21;;;;;;;2.08;0.30;;;;;;;;;;5052463;28;20395;-75
2023/09/22 04:37:47;;;;;;;0.40;0.40;;;;;;;;;;5052470;28;20024;-74
2023/09/22 04:40:24;;;;;;;1.33;0.28;;;;;;;;;;5052150;28;20017;-75
2023/09/22 04:42:53;;;;;;;0.13;0.10;;;;;;;;;;5051077;28;20033;-74
2023/09/22 04:45:19;;;;;;;0.47;0.30;;;;;;;;;;5052622;28;20132;-74
2023/09/22 04:47:47;;;;;;;0.38;0.30;;;;;;;;;;5053845;28;20499;-75
2023/09/22 04:50:15;;;;;;;0.68;0.35;;;;;;;;;;5054568;28;20074;-75
2023/09/22 04:52:41;;;;;;;0.77;0.30;;;;;;;;;;5055857;28;20471;-76
2023/09/22 04:55:07;;;;;;;1.23;0.60;;;;;;;;;;5055719;28;20028;-75
2023/09/22 04:57:32;;;;;;;0.35;0.30;;;;;;;;;;5055644;28;20430;-75
2023/09/22 04:59:57;;;;;;;0.50;0.50;;;;;;;;;;5055810;28;20124;-76
2023/09/22 05:02:22;;;;;;;1.15;0.50;;;;;;;;;;5055587;28;20737;-76
2023/09/22 05:04:48;;;;;;;5.20;0.70;;;;;;;;;;5055572;28;20100;-76
2023/09/22 05:07:13;;;;;;;0.30;0.30;;;;;;;;;;5054235;28;20108;-76
2023/09/22 05:09:39;;;;;;;0.40;0.40;;;;;;;;;;5055592;28;20075;-77
2023/09/22 05:12:05;;;;;;;2.28;0.40;;;;;;;;;;5055582;28;20083;-76
2023/09/22 05:14:30;;;;;;;0.38;0.35;;;;;;;;;;5054131;28;20091;-76
2023/09/22 05:16:55;;;;;;;1.23;0.40;;;;;;;;;;5055341;28;20407;-76
2023/09/22 05:19:20;;;;;;;3.70;0.40;;;;;;;;;;5055184;28;20258;-76
2023/09/22 05:21:45;;;;;;;3.80;0.50;;;;;;;;;;5055167;28;20258;-77
2023/09/22 05:24:11;;;;;;;1.60;0.50;;;;;;;;;;5053768;28;20293;-76
2023/09/22 05:26:37;;;;;;;2.65;0.40;;;;;;;;;;5053556;28;20262;-76
2023/09/22 05:29:03;;;;;;;0.45;0.40;;;;;;;;;;5053837;28;20031;-75
2023/09/22 05:31:28;;;;;;;2.28;1.45;;;;;;;;;;5055033;28;20017;-75
2023/09/22 05:33:55;;;;;;;1.10;0.50;;;;;;;;;;5054871;28;20029;-75
2023/09/22 05:36:20;;;;;;;2.30;0.47;;;;;;;;;;5055608;28;20412;-74
2023/09/22 05:38:45;;;;;;;1.75;0.40;;;;;;;;;;5055069;28;20025;-75
2023/09/22 05:41:11;;;;;;;3.95;0.50;;;;;;;;;;5054682;28;20104;-75
2023/09/22 05:43:36;;;;;;;2.08;0.45;;;;;;;;;;5053615;28;20027;-75
2023/09/22 05:46:01;;;;;;;1.15;0.63;;;;;;;;;;5055260;28;20380;-75
2023/09/22 05:48:27;;;;;;;0.47;0.40;;;;;;;;;;5053594;28;20021;-75
2023/09/22 05:50:57;;;;;;;0.88;0.50;;;;;;;;;;5054140;28;20017;-75
2023/09/22 05:53:24;;;;;;;0.88;0.57;;;;;;;;;;5054956;28;20054;-75
2023/09/22 05:55:50;;;;;;;0.73;0.40;;;;;;;;;;5054850;28;20107;-75
2023/09/22 05:58:16;;;;;;;0.80;0.35;;;;;;;;;;5053478;28;20060;-75
2023/09/22 06:00:44;;;;;;;0.50;0.50;;;;;;;;;;5054498;28;20017;-75
2023/09/22 06:03:09;;;;;;;2.65;0.60;;;;;;;;;;5054843;28;20213;-75
2023/09/22 06:05:35;;;;;;;1.33;0.60;;;;;;;;;;5054867;28;20135;-77
2023/09/22 06:08:00;;;;;;;1.05;0.70;;;;;;;;;;5053949;28;20024;-77
2023/09/22 06:10:25;;;;;;;0.77;0.47;;;;;;;;;;5054446;28;20139;-73
2023/09/22 06:12:50;;;;;;;1.45;0.55;;;;;;;;;;5054324;28;20024;-73
2023/09/22 06:15:16;;;;;;;1.55;0.60;;;;;;;;;;5054347;28;20021;-73
2023/09/22 06:17:41;;;;;;;0.73;0.43;;;;;;;;;;5054264;28;20025;-73
2023/09/22 06:20:09;;;;;;;0.73;0.60;;;;;;;;;;5054104;28;20028;-73
2023/09/22 06:22:35;;;;;;;4.78;0.77;;;;;;;;;;5052850;28;20032;-73
2023/09/22 06:25:00;;;;;;;0.82;0.70;;;;;;;;;;5053967;28;20021;-73
2023/09/22 06:27:25;;;;;;;0.90;0.70;;;;;;;;;;5054020;28;20108;-73
2023/09/22 06:29:50;;;;;;;1.60;0.70;;;;;;;;;;5054930;28;20254;-73
2023/09/22 06:32:18;;;;;;;0.60;0.60;;;;;;;;;;5054064;28;20032;-73
2023/09/22 06:34:43;;;;;;;0.55;0.50;;;;;;;;;;5053968;28;20090;-76
2023/09/22 06:37:09;;;;;;;6.63;0.80;;;;;;;;;;5054197;28;20407;-74
2023/09/22 06:39:34;;;;;;;2.08;0.90;;;;;;;;;;5052127;28;20047;-73
2023/09/22 06:41:59;;;;;;;1.27;0.80;;;;;;;;;;5054151;28;20060;-73
2023/09/22 06:44:27;;;;;;;1.47;0.60;;;;;;;;;;5053634;28;20036;-73
2023/09/22 06:46:52;;;;;;;1.40;0.80;;;;;;;;;;5051859;28;20315;-74
2023/09/22 06:49:18;;;;;;;0.52;0.52;;;;;;;;;;5051055;28;20149;-73
2023/09/22 06:51:43;;;;;;;1.60;1.10;;;;;;;;;;5053508;28;20056;-73
2023/09/22 06:54:08;;;;;;;2.37;1.20;;;;;;;;;;5052790;28;20079;-74
2023/09/22 06:56:35;;;;;;;1.17;0.90;;;;;;;;;;5053596;28;20254;-73
2023/09/22 06:59:01;;;;;;;0.60;0.60;;;;;;;;;;5053337;28;20250;-73
2023/09/22 07:01:26;;;;;;;1.23;0.80;;;;;;;;;;5053279;28;20024;-73
2023/09/22 07:03:52;;;;;;;4.43;0.70;;;;;;;;;;5052184;28;20115;-72
2023/09/22 07:06:19;;;;;;;5.50;0.90;;;;;;;;;;5051937;28;20484;-73
2023/09/22 07:08:46;;;;;;;0.95;0.70;;;;;;;;;;5053483;28;20349;-73
2023/09/22 07:11:11;;;;;;;0.82;0.73;;;;;;;;;;5052693;28;20067;-73
2023/09/22 07:13:40;;;;;;;0.52;0.52;;;;;;;;;;5053087;28;20032;-73
2023/09/22 07:16:06;;;;;;;0.80;0.70;;;;;;;;;;5053459;28;20043;-77
2023/09/22 07:18:31;;;;;;;1.73;0.70;;;;;;;;;;5051493;28;20020;-76
2023/09/22 07:20:56;;;;;;;2.13;0.90;;;;;;;;;;5051717;28;20021;-76
2023/09/22 07:23:23;;;;;;;1.27;0.68;;;;;;;;;;5051586;28;20476;-75
2023/09/22 07:26:17;;;;;;;1.00;0.80;;;;;;;;;;5052838;28;20028;-76
2023/09/22 07:28:42;;;;;;;;;;;;;;;;;;5048759;28;20043;-76
2023/09/22 07:31:12;;;;;;;0.70;0.60;;;;;;;;;;5051943;28;19995;-76
2023/09/22 07:33:40;;;;;;;1.30;1.00;;;;;;;;;;5051604;28;20028;-76
2023/09/22 07:36:07;;;;;;;1.10;0.70;;;;;;;;;;5051503;28;20033;-76
2023/09/22 07:38:33;;;;;;;2.03;0.65;;;;;;;;;;5053446;28;20032;-76
2023/09/22 07:40:59;;;;;;;2.88;0.73;;;;;;;;;;5053154;28;20025;-76
2023/09/22 07:43:28;;;;;;;1.90;0.82;;;;;;;;;;5051334;28;20118;-76
2023/09/22 07:45:53;;;;;;;1.48;0.80;;;;;;;;;;5051352;28;20067;-76
2023/09/22 07:48:19;;;;;;;1.58;0.80;;;;;;;;;;5051519;28;20031;-76
2023/09/22 07:50:44;;;;;;;1.23;0.50;;;;;;;;;;5052660;28;20027;-77
2023/09/22 07:53:09;;;;;;;0.70;0.70;;;;;;;;;;5051067;28;20679;-77
2023/09/22 07:55:35;;;;;;;1.10;0.43;;;;;;;;;;5051859;28;20025;-77
2023/09/22 07:58:03;;;;;;;1.98;0.80;;;;;;;;;;5052645;28;20264;-77
2023/09/22 08:00:29;;;;;;;1.50;0.80;;;;;;;;;;5052651;28;20024;-76
2023/09/22 08:02:54;;;;;;;2.47;0.85;;;;;;;;;;5052846;28;20037;-77
2023/09/22 08:05:20;;;;;;;3.75;0.60;;;;;;;;;;5052686;28;20032;-77
2023/09/22 08:07:47;;;;;;;2.47;0.68;;;;;;;;;;5051791;28;20438;-76
2023/09/22 08:10:12;;;;;;;2.35;0.80;;;;;;;;;;5052788;28;20063;-77
2023/09/22 08:12:40;;;;;;;1.20;0.80;;;;;;;;;;5052063;28;20025;-78
2023/09/22 08:15:08;;;;;;;3.17;0.98;;;;;;;;;;5052973;28;20063;-81
2023/09/22 08:17:33;;;;;;;0.90;0.50;;;;;;;;;;5054725;28;20032;-78
2023/09/22 08:19:58;;;;;;;1.70;0.70;;;;;;;;;;5057659;28;20025;-80
2023/09/22 08:22:26;;;;;;;0.70;0.70;;;;;;;;;;5058814;28;20043;-79
2023/09/22 08:24:51;;;;;;;1.33;0.80;;;;;;;;;;5062684;28;20037;-79
2023/09/22 08:27:17;;;;;;;2.33;0.85;;;;;;;;;;5066124;28;20025;-81
2023/09/22 08:29:42;;;;;;;1.73;0.70;;;;;;;;;;5062856;28;20021;-81
2023/09/22 08:32:08;;;;;;;0.87;0.70;;;;;;;;;;5061183;28;20316;-80
2023/09/22 08:34:35;;;;;;;2.22;0.82;;;;;;;;;;5059966;28;20357;-82
2023/09/22 08:37:00;;;;;;;2.90;0.60;;;;;;;;;;5058422;28;20122;-81
2023/09/22 08:39:26;;;;;;;0.82;0.60;;;;;;;;;;5057668;28;20032;-79
2023/09/22 08:41:52;;;;;;;2.90;0.73;;;;;;;;;;5058464;28;20040;-80
2023/09/22 08:44:18;;;;;;;2.47;0.70;;;;;;;;;;5056146;28;20025;-79
2023/09/22 08:46:44;;;;;;;1.15;0.70;;;;;;;;;;5058301;28;20029;-78
2023/09/22 08:49:10;;;;;;;1.45;0.90;;;;;;;;;;5057311;28;20025;-78
2023/09/22 08:51:35;;;;;;;1.55;0.73;;;;;;;;;;5057302;28;20017;-79
2023/09/22 08:54:01;;;;;;;1.17;0.60;;;;;;;;;;5055619;28;20456;-79
2023/09/22 08:56:27;;;;;;;0.80;0.70;;;;;;;;;;5058853;28;20021;-84
2023/09/22 08:58:52;;;;;;;1.30;0.65;;;;;;;;;;5058619;28;20082;-82
2023/09/22 09:01:17;;;;;;;0.93;0.80;;;;;;;;;;5059469;28;20053;-78
2023/09/22 09:03:44;;;;;;;2.53;0.60;;;;;;;;;;5060510;28;20029;-82
2023/09/22 09:06:10;;;;;;;1.23;0.80;;;;;;;;;;5055790;28;20021;-78
2023/09/22 09:08:35;;;;;;;1.15;0.65;;;;;;;;;;5054541;28;20546;-77
2023/09/22 09:11:10;;;;;;;1.95;0.80;;;;;;;;;;5054963;28;20399;-76
2023/09/22 09:13:37;;;;;;;0.98;0.80;;;;;;;;;;5054293;28;20110;-77
2023/09/22 09:16:07;;;;;;;0.93;0.70;;;;;;;;;;5054966;28;20484;-75
2023/09/22 09:18:33;;;;;;;6.82;0.88;;;;;;;;;;5054884;28;20365;-75
2023/09/22 09:21:14;;;;;;;3.90;0.80;;;;;;;;;;5053927;28;20070;-75
2023/09/22 09:23:56;;;;;;;5.13;0.80;;;;;;;;;;5054566;28;20052;-76
2023/09/22 09:26:31;;;;;;;1.48;0.80;;;;;;;;;;5055470;28;20024;-75
2023/09/22 09:28:58;;;;;;;2.10;0.90;;;;;;;;;;5055145;28;20074;-74
2023/09/22 09:31:45;;;;;;;2.17;0.85;;;;;;;;;;5054981;28;20021;-76
2023/09/22 09:34:10;;;;;;;1.77;0.90;;;;;;;;;;5054014;28;20024;-75
2023/09/22 09:36:36;;;;;;;1.10;0.80;;;;;;;;;;5054683;28;20502;-75
2023/09/22 09:39:01;;;;;;;1.43;0.80;;;;;;;;;;5054671;28;20049;-75
2023/09/22 09:41:27;;;;;;;1.45;0.90;;;;;;;;;;5054887;28;20783;-75
2023/09/22 09:43:54;;;;;;;0.82;0.70;;;;;;;;;;5054899;28;20467;-75
2023/09/22 09:46:20;;;;;;;2.42;0.90;;;;;;;;;;5054412;28;20488;-75
2023/09/22 09:48:49;;;;;;;5.68;1.00;;;;;;;;;;5054282;28;20033;-76
2023/09/22 09:51:20;;;;;;;3.15;1.30;;;;;;;;;;5052395;28;20021;-75
2023/09/22 09:53:46;;;;;;;1.25;0.90;;;;;;;;;;5053492;28;20473;-74
2023/09/22 09:56:13;;;;;;;1.38;0.93;;;;;;;;;;5054652;28;20466;-75
2023/09/22 09:58:39;;;;;;;4.47;1.00;;;;;;;;;;5053588;28;20025;-74
2023/09/22 10:01:06;;;;;;;1.02;0.93;;;;;;;;;;5054598;28;20074;-74
2023/09/22 10:03:33;;;;;;;3.00;1.00;;;;;;;;;;5054447;28;20187;-76
2023/09/22 10:06:01;;;;;;;1.95;0.90;;;;;;;;;;5053310;28;20491;-75
2023/09/22 10:08:28;;;;;;;1.35;0.90;;;;;;;;;;5054824;28;20025;-75
2023/09/22 10:11:05;;;;;;;2.05;1.10;;;;;;;;;;5053069;28;20112;-74
2023/09/22 10:13:31;;;;;;;1.40;0.80;;;;;;;;;;5054344;28;20032;-75
2023/09/22 10:16:04;;;;;;;1.10;0.70;;;;;;;;;;5061348;28;20115;-80
2023/09/22 10:18:49;;;;;;;4.18;0.85;;;;;;;;;;5053691;28;20029;-75
2023/09/22 10:21:38;;;;;;;0.90;0.70;;;;;;;;;;5054193;28;20017;-75
2023/09/22 10:24:32;;;;;;;1.27;0.80;;;;;;;;;;5052969;28;20391;-76
2023/09/22 10:26:59;;;;;;;0.88;0.80;;;;;;;;;;5053066;28;20033;-76
2023/09/22 10:29:35;;;;;;;0.70;0.70;;;;;;;;;;5052586;28;20067;-74
2023/09/22 10:32:15;;;;;;;2.65;0.75;;;;;;;;;;5052898;28;20021;-75
2023/09/22 10:34:49;;;;;;;0.95;0.60;;;;;;;;;;5053027;28;20119;-74
2023/09/22 10:37:18;;;;;;;1.00;0.70;;;;;;;;;;5053069;28;20029;-73
2023/09/22 10:39:53;;;;;;;1.35;0.77;;;;;;;;;;5052476;28;20495;-76
2023/09/22 10:42:21;;;;;;;2.00;0.90;;;;;;;;;;5052552;28;20025;-74
2023/09/22 10:45:07;;;;;;;3.33;0.82;;;;;;;;;;5052780;28;20025;-74
2023/09/22 10:47:39;;;;;;;1.45;0.80;;;;;;;;;;5053345;28;20028;-75
2023/09/22 10:50:21;;;;;;;1.80;0.90;;;;;;;;;;5052885;28;20040;-75
2023/09/22 10:52:51;;;;;;;2.17;0.90;;;;;;;;;;5053502;28;20510;-74
2023/09/22 10:55:25;;;;;;;1.20;0.85;;;;;;;;;;5052992;28;20090;-76
2023/09/22 10:57:50;;;;;;;3.45;0.90;;;;;;;;;;5053073;28;20056;-74
2023/09/22 11:00:18;;;;;;;1.67;0.88;;;;;;;;;;5053148;28;20021;-75
2023/09/22 11:02:44;;;;;;;2.45;0.90;;;;;;;;;;5054302;28;20040;-75
2023/09/22 11:05:18;;;;;;;0.93;0.70;;;;;;;;;;5053775;28;20029;-75
2023/09/22 11:07:44;;;;;;;0.90;0.65;;;;;;;;;;5054373;28;20052;-75
2023/09/22 11:10:17;;;;;;;1.65;0.98;;;;;;;;;;5054375;28;20515;-76
2023/09/22 11:12:46;;;;;;;;;;;;;;;;;;5055576;28;20500;-75
2023/09/22 11:15:13;;;;;;;1.27;0.70;;;;;;;;;;5053407;28;19913;-75
2023/09/22 11:17:46;;;;;;;3.38;0.77;;;;;;;;;;5053163;28;20560;-76
2023/09/22 11:20:34;;;;;;;2.50;0.80;;;;;;;;;;5053033;28;20116;-82
2023/09/22 11:23:00;;;;;;;2.35;1.02;;;;;;;;;;5054925;28;20457;-76
2023/09/22 11:25:25;;;;;;;0.98;0.90;;;;;;;;;;5054993;28;20040;-75
2023/09/22 11:27:52;;;;;;;1.00;0.75;;;;;;;;;;5056137;28;20051;-75
2023/09/22 11:30:25;;;;;;;1.58;1.00;;;;;;;;;;5053586;28;20032;-78
2023/09/22 11:32:51;;;;;;;1.10;0.90;;;;;;;;;;5050396;28;20480;-76
2023/09/22 11:35:39;;;;;;;1.02;0.70;;;;;;;;;;5052110;28;20021;-75
2023/09/22 11:38:24;;;;;;;1.65;0.80;;;;;;;;;;5051211;28;20048;-75
2023/09/22 11:41:01;;;;;;;1.50;0.88;;;;;;;;;;5052926;28;20024;-77
2023/09/22 11:43:29;;;;;;;3.40;0.73;;;;;;;;;;5052543;28;20036;-81
2023/09/22 11:46:11;;;;;;;1.88;0.70;;;;;;;;;;5053502;28;20025;-74
2023/09/22 11:48:55;;;;;;;1.67;0.82;;;;;;;;;;5036122;28;20021;-73
2023/09/22 11:51:21;;;;;;;1.20;0.80;;;;;;;;;;5052427;28;20438;-72
2023/09/22 11:53:47;;;;;;;1.92;0.70;;;;;;;;;;5051799;28;20028;-72
2023/09/22 11:56:13;;;;;;;2.47;0.98;;;;;;;;;;5051582;28;20025;-73
2023/09/22 11:58:39;;;;;;;2.20;1.00;;;;;;;;;;5054917;28;20372;-73
2023/09/22 12:01:05;;;;;;;1.73;0.80;;;;;;;;;;5055673;28;20025;-72
2023/09/22 12:03:32;;;;;;;1.60;0.85;;;;;;;;;;5055307;28;20032;-75
2023/09/22 12:05:58;;;;;;;0.88;0.82;;;;;;;;;;5056798;28;20104;-72
2023/09/22 12:08:24;;;;;;;2.30;0.82;;;;;;;;;;5056653;28;20451;-72
2023/09/22 12:10:49;;;;;;;2.35;0.88;;;;;;;;;;5056945;28;20056;-72
2023/09/22 12:13:14;;;;;;;1.70;0.90;;;;;;;;;;5055995;28;20068;-72
2023/09/22 12:15:39;;;;;;;1.23;0.87;;;;;;;;;;5056533;28;20102;-72
2023/09/22 12:18:05;;;;;;;0.83;0.70;;;;;;;;;;5055375;28;20264;-72
2023/09/22 12:20:30;;;;;;;1.45;0.75;;;;;;;;;;5055170;28;20365;-72
2023/09/22 12:22:56;;;;;;;2.33;0.88;;;;;;;;;;5056141;28;20573;-74
2023/09/22 12:25:21;;;;;;;2.00;1.00;;;;;;;;;;5055467;28;20029;-72
2023/09/22 12:27:46;;;;;;;4.13;0.80;;;;;;;;;;5056511;28;20021;-72
2023/09/22 12:30:13;;;;;;;1.70;0.98;;;;;;;;;;5056134;28;20025;-72
2023/09/22 12:32:39;;;;;;;1.23;0.85;;;;;;;;;;5056628;28;20483;-72
2023/09/22 12:35:05;;;;;;;3.55;0.80;;;;;;;;;;5056474;28;20043;-72
2023/09/22 12:37:31;;;;;;;2.90;0.98;;;;;;;;;;5056659;28;20028;-72
2023/09/22 12:39:57;;;;;;;2.70;1.00;;;;;;;;;;5055800;28;20029;-72
2023/09/22 12:42:22;;;;;;;1.30;0.80;;;;;;;;;;5055053;28;20151;-73
2023/09/22 12:44:47;;;;;;;1.50;0.80;;;;;;;;;;5055955;28;20021;-73
2023/09/22 12:47:12;;;;;;;1.07;0.70;;;;;;;;;;5056254;28;20775;-73
2023/09/22 12:49:38;;;;;;;3.27;0.80;;;;;;;;;;5059294;28;20290;-72
2023/09/22 12:52:03;;;;;;;2.83;0.85;;;;;;;;;;5061106;28;20277;-73
2023/09/22 12:54:28;;;;;;;1.30;0.90;;;;;;;;;;5056793;28;20025;-77
2023/09/22 12:56:53;;;;;;;1.07;0.70;;;;;;;;;;5058365;28;20109;-72
2023/09/22 12:59:19;;;;;;;1.20;0.70;;;;;;;;;;5055472;28;20266;-75
2023/09/22 13:01:44;;;;;;;1.07;0.83;;;;;;;;;;5055749;28;20783;-75
2023/09/22 13:04:09;;;;;;;0.77;0.70;;;;;;;;;;5054433;28;20266;-75
2023/09/22 13:06:37;;;;;;;1.45;0.70;;;;;;;;;;5054484;28;20334;-74
2023/09/22 13:09:02;;;;;;;3.38;0.80;;;;;;;;;;5053691;28;20074;-75
2023/09/22 13:11:28;;;;;;;1.48;0.70;;;;;;;;;;5055391;28;20021;-75
2023/09/22 13:13:53;;;;;;;1.38;0.80;;;;;;;;;;5056395;28;20487;-74
2023/09/22 13:16:18;;;;;;;2.22;0.60;;;;;;;;;;5054196;28;20028;-74
2023/09/22 13:18:46;;;;;;;1.30;0.60;;;;;;;;;;5055512;28;20170;-75
2023/09/22 13:21:14;;;;;;;2.67;0.70;;;;;;;;;;5054301;28;20102;-75
2023/09/22 13:23:40;;;;;;;2.50;0.80;;;;;;;;;;5055597;28;20032;-75
2023/09/22 13:26:06;;;;;;;1.02;0.68;;;;;;;;;;5056367;28;20406;-75
2023/09/22 13:28:31;;;;;;;1.20;0.80;;;;;;;;;;5057623;28;20033;-74
2023/09/22 13:30:56;;;;;;;2.35;0.90;;;;;;;;;;5055278;28;20032;-76
2023/09/22 13:33:22;;;;;;;0.90;0.60;;;;;;;;;;5055504;28;20507;-74
2023/09/22 13:35:51;;;;;;;2.38;1.10;;;;;;;;;;5054902;28;20031;-74
2023/09/22 13:38:17;;;;;;;0.88;0.60;;;;;;;;;;5055718;28;20025;-74
2023/09/22 13:40:44;;;;;;;2.75;0.82;;;;;;;;;;5055004;28;20048;-74
2023/09/22 13:43:12;;;;;;;1.75;0.68;;;;;;;;;;5053840;28;20381;-74
2023/09/22 13:45:38;;;;;;;0.95;0.77;;;;;;;;;;5055044;28;20031;-74
2023/09/22 13:48:05;;;;;;;0.70;0.70;;;;;;;;;;5053988;28;20453;-76
2023/09/22 13:50:31;;;;;;;1.55;0.70;;;;;;;;;;5055873;28;20025;-74
2023/09/22 13:52:57;;;;;;;2.95;0.70;;;;;;;;;;5053545;28;20044;-73
2023/09/22 13:55:22;;;;;;;1.83;0.85;;;;;;;;;;5055187;28;20479;-74
2023/09/22 13:57:47;;;;;;;0.93;0.60;;;;;;;;;;5054762;28;20032;-73
2023/09/22 14:00:13;;;;;;;1.83;0.80;;;;;;;;;;5053392;28;20434;-72
2023/09/22 14:02:39;;;;;;;1.60;0.60;;;;;;;;;;5053521;28;20258;-72
2023/09/22 14:05:06;;;;;;;3.60;0.90;;;;;;;;;;5054708;28;20031;-72
2023/09/22 14:07:31;;;;;;;1.13;0.82;;;;;;;;;;5053919;28;20458;-72
2023/09/22 14:09:57;;;;;;;1.67;0.93;;;;;;;;;;5053228;28;20052;-75
2023/09/22 14:12:23;;;;;;;1.35;0.90;;;;;;;;;;5053431;28;20744;-73
2023/09/22 14:14:48;;;;;;;1.40;0.70;;;;;;;;;;5054364;28;20079;-73
2023/09/22 14:17:13;;;;;;;2.40;0.83;;;;;;;;;;5054713;28;20729;-73
2023/09/22 14:19:38;;;;;;;1.58;1.02;;;;;;;;;;5057037;28;20282;-73
2023/09/22 14:22:04;;;;;;;2.70;1.50;;;;;;;;;;5059768;28;20059;-73
2023/09/22 14:24:29;;;;;;;2.88;1.08;;;;;;;;;;5055551;28;20258;-73
2023/09/22 14:26:55;;;;;;;2.05;0.82;;;;;;;;;;5053173;28;20036;-73
2023/09/22 14:29:20;;;;;;;1.30;0.90;;;;;;;;;;5054192;28;20052;-71
2023/09/22 14:31:45;;;;;;;2.47;0.90;;;;;;;;;;5054056;28;20012;-75
2023/09/22 14:34:10;;;;;;;3.10;0.80;;;;;;;;;;5053990;28;20293;-73
2023/09/22 14:36:36;;;;;;;2.63;0.90;;;;;;;;;;5053937;28;20257;-73
2023/09/22 14:39:02;;;;;;;3.47;0.93;;;;;;;;;;5052646;28;20029;-73
2023/09/22 14:41:27;;;;;;;0.80;0.60;;;;;;;;;;5053970;28;20589;-74
2023/09/22 14:43:52;;;;;;;1.15;0.60;;;;;;;;;;5054270;28;20033;-73